Barry, Illinois
Current Conditions -  °F | °C
As of 9:35 AM on Thursday 30 Oct 2014 (Local Time) from KPPQ Reporting Station
Clear Clear  
Wind Chill: 45°   Ceiling: Unl
Heat Index: 47°   Visibility: 10mi
Dew Point: 40°   Wind: 6mph
Humidity: 75%   Direction: 170°S
Pressure: 30.13"   Gusts: NA
Location:  39.69°N, 91.04°W
Report Text: KPPQ 301435Z AUTO 17005KT 10SM CLR 09/04 A3013 RMK AO2 T00860044
Loading
Personal Weather Stations






























Interactive Weather Map
Tropical Storm Tracking
New forecast layout! Learn more

10-Day Weather Forecast

Advertisements
Track Severe Weather on mobile